Rathfriland, United Kingdom
Current Conditions -  °F | °C
As of 11:20 AM on Monday 22 Dec 2014 (Local Time) from EGAC Reporting Station
Light Rain Light Rain  
Wind Chill: 54°   Ceiling: 1400
Heat Index: 54°   Visibility: 2.1mi
Dew Point: 52°   Wind: 12mph
Humidity: 94%   Direction: 230°SW
Pressure: 29.71"   Gusts: NA
Location:  54.25°N, 6.17°W
Report Text: EGAC 221120Z 23010KT 3500 -RADZ FEW005 SCT007 BKN014 12/11 Q1006
Loading
Personal Weather Stations






























Interactive Weather Map New forecast layout! Learn more

10-Day Weather Forecast

Advertisements
Track Severe Weather on mobile